createdAt,value
2018-07-28T00:00:16.721Z,24.40
2018-07-28T00:07:42.600Z,24.40
2018-07-28T00:10:13.113Z,24.40
2018-07-28T00:12:42.957Z,24.30
2018-07-28T00:15:12.880Z,24.40
2018-07-28T00:17:42.742Z,24.40
2018-07-28T00:20:12.905Z,24.40
2018-07-28T00:22:41.649Z,24.40
2018-07-28T00:25:11.617Z,24.40
2018-07-28T00:27:40.773Z,24.40
2018-07-28T00:35:07.877Z,24.20
2018-07-28T00:37:37.149Z,24.30
2018-07-28T00:40:06.297Z,24.30
2018-07-28T00:42:35.455Z,24.30
2018-07-28T00:47:33.425Z,24.30
2018-07-28T00:50:02.593Z,24.30
2018-07-28T00:55:27.918Z,24.30
2018-07-28T00:57:56.861Z,24.20
2018-07-28T01:00:26.314Z,24.20
2018-07-28T01:02:55.365Z,24.20
2018-07-28T01:05:24.257Z,24.20
2018-07-28T01:07:53.234Z,24.20
2018-07-28T01:15:19.195Z,24.20
2018-07-28T01:17:47.974Z,24.10
2018-07-28T01:20:16.781Z,24.20
2018-07-28T01:22:45.565Z,24.20
2018-07-28T01:32:47.787Z,24.00
2018-07-28T01:37:45.114Z,24.10
2018-07-28T01:40:13.948Z,24.10
2018-07-28T01:45:11.466Z,24.00
2018-07-28T01:47:40.347Z,24.00
2018-07-28T01:52:38.761Z,24.00
2018-07-28T01:55:07.666Z,24.00
2018-07-28T01:57:36.601Z,24.00
2018-07-28T02:00:06.113Z,24.00
2018-07-28T02:02:34.890Z,24.00
2018-07-28T02:07:32.607Z,24.00
2018-07-28T02:10:01.453Z,24.00
2018-07-28T02:14:59.020Z,24.00
2018-07-28T02:17:27.861Z,24.00
2018-07-28T02:19:56.733Z,24.00
2018-07-28T02:22:25.621Z,23.80
2018-07-28T02:24:54.416Z,23.90
2018-07-28T02:27:23.309Z,23.90
2018-07-28T02:29:52.093Z,23.90
2018-07-28T02:32:21.006Z,23.90
2018-07-28T02:34:49.981Z,23.70
2018-07-28T02:39:47.450Z,23.80
2018-07-28T02:42:16.230Z,23.90
2018-07-28T02:44:45.469Z,23.80
2018-07-28T02:47:14.285Z,23.80
2018-07-28T02:49:43.115Z,23.80
2018-07-28T02:52:11.885Z,23.80
2018-07-28T02:54:40.727Z,23.90
2018-07-28T02:57:09.706Z,23.80
2018-07-28T02:59:39.052Z,23.80
2018-07-28T03:02:08.014Z,23.80
2018-07-28T03:04:36.807Z,23.80
2018-07-28T03:07:06.563Z,23.80
2018-07-28T03:09:35.605Z,23.80
2018-07-28T03:12:04.469Z,23.80
2018-07-28T03:14:33.341Z,23.70
2018-07-28T03:19:30.783Z,23.70
2018-07-28T03:21:59.578Z,23.70
2018-07-28T03:24:28.521Z,23.60
2018-07-28T03:26:57.385Z,23.70
2018-07-28T03:29:26.127Z,23.70
2018-07-28T03:31:54.937Z,23.70
2018-07-28T03:34:23.745Z,23.70
2018-07-28T03:36:52.614Z,23.60
2018-07-28T03:39:21.425Z,23.60
2018-07-28T03:41:50.306Z,23.60
2018-07-28T03:44:19.128Z,23.60
2018-07-28T03:49:16.492Z,23.60
2018-07-28T03:51:45.345Z,23.60
2018-07-28T03:54:14.149Z,23.50
2018-07-28T03:56:42.926Z,23.50
2018-07-28T03:59:11.790Z,23.50
2018-07-28T04:01:40.589Z,23.40
2018-07-28T04:04:09.518Z,23.50
2018-07-28T04:06:38.309Z,23.60
2018-07-28T04:11:36.081Z,23.60
2018-07-28T04:14:05.192Z,23.60
2018-07-28T04:16:34.042Z,23.60
2018-07-28T04:19:02.857Z,23.50
2018-07-28T04:21:31.641Z,23.50
2018-07-28T04:26:29.397Z,23.60
2018-07-28T04:28:58.305Z,23.50
2018-07-28T04:31:27.174Z,23.60
2018-07-28T04:33:56.133Z,23.60
2018-07-28T04:36:24.973Z,23.60
2018-07-28T04:38:53.957Z,23.60
2018-07-28T04:41:22.771Z,23.60
2018-07-28T04:43:51.839Z,23.60
2018-07-28T04:46:20.632Z,23.60
2018-07-28T04:48:49.561Z,23.60
2018-07-28T04:51:18.368Z,23.70
2018-07-28T04:53:47.314Z,23.70
2018-07-28T04:56:16.225Z,23.60
2018-07-28T04:58:45.066Z,23.70
2018-07-28T05:01:13.962Z,23.70
2018-07-28T05:03:42.777Z,23.60
2018-07-28T05:06:11.641Z,23.70
2018-07-28T05:08:40.585Z,23.70
2018-07-28T05:11:09.383Z,23.70
2018-07-28T05:16:06.768Z,23.70
2018-07-28T05:18:35.745Z,23.80
2018-07-28T05:21:04.539Z,23.80
2018-07-28T05:26:01.893Z,23.70
2018-07-28T05:28:30.697Z,23.70
2018-07-28T05:33:28.354Z,23.80
2018-07-28T05:35:57.134Z,23.80
2018-07-28T05:38:26.154Z,23.80
2018-07-28T05:40:54.936Z,23.80
2018-07-28T05:43:23.841Z,23.80
2018-07-28T05:45:52.602Z,23.70
2018-07-28T05:48:21.414Z,23.70
2018-07-28T05:50:50.301Z,23.80
2018-07-28T05:53:19.065Z,23.80
2018-07-28T05:55:48.037Z,23.80
2018-07-28T05:58:16.957Z,23.90
2018-07-28T06:00:45.746Z,23.80
2018-07-28T06:03:14.537Z,23.90
2018-07-28T06:05:43.319Z,23.90
2018-07-28T06:08:12.246Z,23.90
2018-07-28T06:15:38.181Z,23.90
2018-07-28T06:18:07.006Z,24.00
2018-07-28T06:20:35.729Z,23.90
2018-07-28T06:23:04.522Z,24.00
2018-07-28T06:25:33.294Z,24.10
2018-07-28T06:28:02.146Z,24.20
2018-07-28T06:30:30.951Z,24.20
2018-07-28T06:32:59.714Z,24.20
2018-07-28T06:35:28.532Z,24.20
2018-07-28T06:37:57.539Z,24.30
2018-07-28T06:40:26.405Z,24.30
2018-07-28T06:42:55.282Z,24.30
2018-07-28T06:45:24.206Z,24.40
2018-07-28T06:47:53.029Z,24.40
2018-07-28T06:50:21.781Z,24.40
2018-07-28T06:52:51.168Z,24.50
2018-07-28T06:55:20.354Z,24.50
2018-07-28T06:57:49.165Z,24.60
2018-07-28T07:00:17.970Z,24.70
2018-07-28T07:02:46.733Z,24.70
2018-07-28T07:05:15.534Z,24.80
2018-07-28T07:07:44.301Z,24.80
2018-07-28T07:10:13.102Z,24.90
2018-07-28T07:12:41.861Z,24.90
2018-07-28T07:15:10.638Z,24.90
2018-07-28T07:17:39.479Z,25.00
2018-07-28T07:20:08.365Z,25.00
2018-07-28T07:22:37.205Z,25.00
2018-07-28T07:25:06.081Z,25.10
2018-07-28T07:27:35.069Z,25.10
2018-07-28T07:30:04.657Z,25.20
2018-07-28T07:32:33.531Z,25.20
2018-07-28T07:37:30.814Z,25.30
2018-07-28T07:39:59.669Z,25.40
2018-07-28T07:42:28.465Z,25.50
2018-07-28T07:44:57.253Z,25.50
2018-07-28T07:47:26.066Z,25.50
2018-07-28T07:54:51.845Z,25.70
2018-07-28T07:57:20.600Z,25.70
2018-07-28T08:02:17.873Z,25.80
2018-07-28T08:04:46.789Z,25.80
2018-07-28T08:07:15.533Z,25.90
2018-07-28T08:09:44.397Z,25.90
2018-07-28T08:12:13.224Z,26.00
2018-07-28T08:14:42.015Z,26.10
2018-07-28T08:17:10.896Z,26.10
2018-07-28T08:22:08.142Z,26.20
2018-07-28T08:24:36.976Z,26.30
2018-07-28T08:27:05.898Z,26.30
2018-07-28T08:29:34.774Z,26.40
2018-07-28T08:32:03.557Z,26.50
2018-07-28T08:34:32.305Z,26.50
2018-07-28T08:37:01.067Z,26.60
2018-07-28T08:39:29.932Z,26.60
2018-07-28T08:41:58.733Z,26.60
2018-07-28T08:44:27.469Z,26.60
2018-07-28T08:46:56.250Z,26.80
2018-07-28T08:49:25.100Z,26.80
2018-07-28T08:51:53.750Z,27.00
2018-07-28T08:56:51.042Z,27.10
2018-07-28T08:59:19.845Z,27.10
2018-07-28T09:01:48.706Z,27.20
2018-07-28T09:04:17.486Z,27.20
2018-07-28T09:09:14.771Z,27.40
2018-07-28T09:11:43.521Z,27.40
2018-07-28T09:14:12.306Z,27.50
2018-07-28T09:16:41.085Z,27.60
2018-07-28T09:19:09.893Z,27.60
2018-07-28T09:21:38.737Z,27.80
2018-07-28T09:26:36.037Z,27.90
2018-07-28T09:29:05.086Z,28.00
2018-07-28T09:31:34.002Z,28.10
2018-07-28T09:34:02.761Z,28.10
2018-07-28T09:39:00.202Z,28.40
2018-07-28T09:41:29.048Z,28.30
2018-07-28T09:46:26.558Z,28.60
2018-07-28T09:48:55.679Z,28.60
2018-07-28T09:51:24.614Z,28.70
2018-07-28T09:53:53.506Z,28.80
2018-07-28T09:56:22.410Z,28.90
2018-07-28T09:58:51.160Z,29.00
2018-07-28T10:06:19.577Z,29.20
2018-07-28T10:08:48.356Z,29.40
2018-07-28T10:11:17.182Z,29.50
2018-07-28T10:13:45.910Z,29.40
2018-07-28T10:16:14.701Z,29.50
2018-07-28T10:18:43.429Z,29.80
2018-07-28T10:21:12.269Z,30.00
2018-07-28T10:23:41.053Z,30.00
2018-07-28T10:26:09.913Z,30.00
2018-07-28T10:28:38.661Z,30.00
2018-07-28T10:36:04.747Z,30.30
2018-07-28T10:38:33.626Z,30.40
2018-07-28T10:41:02.389Z,30.50
2018-07-28T10:43:31.189Z,30.80
2018-07-28T10:46:00.305Z,30.90
2018-07-28T10:48:29.380Z,31.00
2018-07-28T10:53:26.818Z,31.20
2018-07-28T10:55:55.595Z,31.30
2018-07-28T10:58:24.586Z,31.40
2018-07-28T11:00:53.345Z,31.60
2018-07-28T11:03:22.148Z,31.80
2018-07-28T11:05:50.967Z,31.70
2018-07-28T11:08:20.078Z,31.80
2018-07-28T11:10:49.038Z,31.80
2018-07-28T11:13:18.042Z,32.00
2018-07-28T11:15:47.225Z,32.00
2018-07-28T11:20:44.949Z,31.70
2018-07-28T11:23:24.052Z,31.80
2018-07-28T11:25:52.794Z,32.30
2018-07-28T11:28:21.624Z,32.70
2018-07-28T11:30:50.619Z,32.80
2018-07-28T11:34:28.505Z,32.50
2018-07-28T11:37:08.841Z,32.50
2018-07-28T11:42:23.281Z,33.10
2018-07-28T11:45:00.135Z,32.90
2018-07-28T11:47:28.917Z,32.80
2018-07-28T11:49:57.678Z,32.80
2018-07-28T11:52:26.494Z,33.00
2018-07-28T11:54:56.364Z,33.30
2018-07-28T11:57:25.150Z,33.40
2018-07-28T11:59:53.941Z,33.50
2018-07-28T12:02:22.681Z,33.60
2018-07-28T12:04:51.473Z,33.40
2018-07-28T12:07:20.281Z,33.60
2018-07-28T12:09:49.125Z,33.60
2018-07-28T12:12:17.882Z,33.50
2018-07-28T12:14:46.789Z,33.40
2018-07-28T12:19:44.343Z,32.90
2018-07-28T12:22:13.125Z,32.80
2018-07-28T12:24:42.097Z,32.70
2018-07-28T12:27:11.233Z,32.70
2018-07-28T12:29:40.284Z,32.70
2018-07-28T12:32:09.312Z,32.80
2018-07-28T12:34:38.234Z,33.20
2018-07-28T12:37:07.624Z,33.30
2018-07-28T12:39:36.466Z,33.20
2018-07-28T12:42:06.509Z,33.70
2018-07-28T12:44:35.321Z,34.30
2018-07-28T12:49:32.773Z,34.70
2018-07-28T12:52:01.767Z,35.10
2018-07-28T12:54:30.573Z,34.70
2018-07-28T12:56:59.371Z,34.10
2018-07-28T12:59:28.550Z,34.20
2018-07-28T13:01:57.477Z,34.60
2018-07-28T13:04:26.449Z,34.80
2018-07-28T13:06:55.233Z,34.30
2018-07-28T13:09:24.145Z,33.80
2018-07-28T13:14:21.553Z,34.10
2018-07-28T13:16:50.370Z,34.70
2018-07-28T13:19:19.268Z,35.10
2018-07-28T13:21:48.050Z,35.50
2018-07-28T13:24:16.874Z,35.80
2018-07-28T13:29:14.370Z,35.30
2018-07-28T13:31:43.197Z,35.10
2018-07-28T13:34:12.033Z,34.80
2018-07-28T13:39:09.407Z,33.70
2018-07-28T13:44:07.218Z,33.40
2018-07-28T13:46:36.016Z,33.30
2018-07-28T13:49:05.342Z,33.10
2018-07-28T13:51:34.181Z,33.20
2018-07-28T13:54:03.400Z,33.00
2018-07-28T13:56:32.401Z,32.80
2018-07-28T13:59:01.366Z,32.80
2018-07-28T14:01:30.318Z,32.60
2018-07-28T14:03:59.100Z,32.50
2018-07-28T14:06:28.025Z,32.50
2018-07-28T14:08:56.905Z,32.60
2018-07-28T14:11:25.758Z,32.70
2018-07-28T14:13:54.673Z,32.70
2018-07-28T14:16:23.569Z,32.60
2018-07-28T14:18:52.377Z,32.40
2018-07-28T14:21:21.188Z,32.30
2018-07-28T14:23:50.326Z,32.20
2018-07-28T14:26:19.341Z,32.20
2018-07-28T14:28:48.127Z,32.10
2018-07-28T14:31:17.001Z,31.90
2018-07-28T14:33:45.791Z,31.80
2018-07-28T14:36:14.972Z,31.80
2018-07-28T14:38:43.729Z,31.80
2018-07-28T14:41:12.622Z,31.70
2018-07-28T14:43:41.493Z,31.60
2018-07-28T14:48:39.621Z,31.30
2018-07-28T14:51:08.561Z,31.00
2018-07-28T14:53:37.493Z,29.90
2018-07-28T14:56:06.798Z,29.30
2018-07-28T14:58:36.413Z,28.70
2018-07-28T15:01:05.291Z,28.20
2018-07-28T15:03:34.371Z,28.00
2018-07-28T15:06:03.327Z,27.70
2018-07-28T15:08:32.141Z,27.50
2018-07-28T15:13:29.685Z,26.00
2018-07-28T15:15:58.533Z,25.90
2018-07-28T15:18:27.305Z,25.60
2018-07-28T15:23:24.873Z,25.30
2018-07-28T15:25:53.716Z,25.10
2018-07-28T15:28:22.470Z,25.20
2018-07-28T15:33:19.741Z,25.00
2018-07-28T15:38:17.017Z,24.90
2018-07-28T15:40:45.805Z,24.90
2018-07-28T15:43:14.593Z,24.80
2018-07-28T15:45:43.450Z,24.70
2018-07-28T15:48:12.214Z,24.70
2018-07-28T15:50:40.956Z,24.60
2018-07-28T15:53:09.721Z,24.50
2018-07-28T15:55:38.691Z,24.50
2018-07-28T15:58:07.405Z,24.40
2018-07-28T16:00:36.297Z,24.30
2018-07-28T16:03:05.129Z,24.20
2018-07-28T16:05:33.886Z,24.20
2018-07-28T16:10:31.402Z,24.10
2018-07-28T16:13:00.150Z,24.00
2018-07-28T16:17:57.565Z,24.10
2018-07-28T16:20:26.401Z,24.00
2018-07-28T16:22:55.298Z,24.00
2018-07-28T16:25:24.060Z,24.10
2018-07-28T16:27:53.092Z,24.10
2018-07-28T16:35:19.154Z,24.00
2018-07-28T16:37:48.400Z,24.00
2018-07-28T16:40:17.243Z,23.90
2018-07-28T16:42:46.042Z,23.80
2018-07-28T16:45:14.890Z,23.60
2018-07-28T16:47:43.950Z,23.70
2018-07-28T16:50:12.961Z,23.60
2018-07-28T16:52:41.853Z,23.60
2018-07-28T16:55:10.625Z,23.70
2018-07-28T16:57:39.493Z,23.80
2018-07-28T17:00:08.737Z,23.80
2018-07-28T17:02:37.706Z,23.90
2018-07-28T17:05:06.804Z,23.90
2018-07-28T17:07:35.593Z,23.80
2018-07-28T17:10:04.818Z,23.90
2018-07-28T17:12:33.605Z,24.00
2018-07-28T17:15:02.485Z,24.00
2018-07-28T17:17:31.310Z,23.90
2018-07-28T17:20:00.106Z,23.90
2018-07-28T17:22:29.087Z,23.90
2018-07-28T17:24:57.994Z,24.00
2018-07-28T17:27:26.877Z,24.00
2018-07-28T17:29:55.645Z,24.00
2018-07-28T17:32:24.629Z,24.00
2018-07-28T17:34:53.360Z,24.00
2018-07-28T17:37:22.410Z,24.10
2018-07-28T17:39:51.218Z,24.10
2018-07-28T17:44:48.524Z,24.00
2018-07-28T17:49:46.844Z,24.00
2018-07-28T17:52:15.611Z,24.00
2018-07-28T17:54:44.493Z,23.90
2018-07-28T17:59:41.837Z,23.80
2018-07-28T18:04:39.217Z,23.80
2018-07-28T18:07:07.953Z,23.70
2018-07-28T18:09:36.929Z,23.60
2018-07-28T18:12:05.933Z,23.40
2018-07-28T18:14:35.127Z,23.30
2018-07-28T18:17:05.851Z,23.40
2018-07-28T18:19:34.799Z,23.40
2018-07-28T18:22:03.534Z,23.50
2018-07-28T18:27:00.955Z,23.50
2018-07-28T18:29:30.033Z,23.50
2018-07-28T18:31:58.799Z,23.50
2018-07-28T18:34:27.541Z,23.60
2018-07-28T18:36:56.334Z,23.60
2018-07-28T18:39:25.294Z,23.70
2018-07-28T18:41:54.098Z,23.90
2018-07-28T18:44:22.912Z,24.10
2018-07-28T18:46:51.701Z,24.60
2018-07-28T18:49:20.465Z,25.10
2018-07-28T18:51:49.305Z,24.60
2018-07-28T18:54:18.172Z,24.10
2018-07-28T18:56:46.945Z,23.80
2018-07-28T18:59:16.110Z,23.60
2018-07-28T19:01:44.846Z,23.50
2018-07-28T19:04:13.617Z,23.40
2018-07-28T19:06:42.420Z,23.30
2018-07-28T19:09:16.662Z,23.30
2018-07-28T19:16:47.881Z,23.00
2018-07-28T19:19:18.100Z,22.90
2018-07-28T19:24:15.995Z,22.90
2018-07-28T19:26:44.933Z,22.80
2018-07-28T19:29:19.101Z,22.80
2018-07-28T19:31:47.970Z,22.80
2018-07-28T19:34:16.929Z,22.70
2018-07-28T19:36:51.069Z,22.70
2018-07-28T19:39:21.348Z,22.60
2018-07-28T19:44:24.554Z,22.50
2018-07-28T19:46:53.506Z,22.50
2018-07-28T19:49:22.336Z,22.50
2018-07-28T19:51:51.122Z,22.50
2018-07-28T19:54:20.057Z,22.40
2018-07-28T19:59:17.617Z,22.40
2018-07-28T20:01:46.360Z,22.40
2018-07-28T20:04:15.290Z,22.40
2018-07-28T20:06:44.064Z,22.40
2018-07-28T20:09:12.884Z,22.40
2018-07-28T20:14:10.230Z,22.30
2018-07-28T20:16:39.106Z,22.30
2018-07-28T20:19:08.170Z,22.30
2018-07-28T20:21:37.026Z,22.30
2018-07-28T20:24:06.189Z,22.20
2018-07-28T20:26:34.993Z,22.20
2018-07-28T20:29:03.708Z,22.30
2018-07-28T20:34:02.958Z,22.30
2018-07-28T20:36:31.909Z,22.20
2018-07-28T20:41:29.470Z,22.10
2018-07-28T20:43:58.285Z,22.20
2018-07-28T20:46:27.058Z,22.10
2018-07-28T20:48:55.849Z,22.10
2018-07-28T20:51:24.618Z,22.10
2018-07-28T20:53:54.642Z,22.10
2018-07-28T20:56:23.613Z,22.00
2018-07-28T20:58:52.366Z,22.00
2018-07-28T21:01:21.295Z,22.00
2018-07-28T21:03:50.249Z,21.90
2018-07-28T21:06:19.093Z,22.00
2018-07-28T21:08:48.077Z,22.00
2018-07-28T21:11:17.029Z,22.00
2018-07-28T21:21:11.261Z,21.90
2018-07-28T21:23:40.054Z,21.80
2018-07-28T21:26:09.073Z,21.80
2018-07-28T21:28:37.887Z,21.80
2018-07-28T21:31:06.797Z,21.80
2018-07-28T21:33:35.775Z,21.80
2018-07-28T21:36:04.958Z,21.80
2018-07-28T21:38:33.955Z,21.80
2018-07-28T21:41:02.779Z,21.80
2018-07-28T21:43:31.581Z,21.80
2018-07-28T21:46:00.450Z,21.80
2018-07-28T21:48:29.338Z,21.80
2018-07-28T21:55:55.316Z,21.80
2018-07-28T22:01:06.305Z,21.80
2018-07-28T22:03:35.569Z,21.70
2018-07-28T22:06:04.361Z,21.70
2018-07-28T22:08:33.277Z,21.70
2018-07-28T22:11:02.034Z,21.70
2018-07-28T22:13:30.925Z,21.80
2018-07-28T22:15:59.733Z,21.80
2018-07-28T22:18:28.621Z,21.80
2018-07-28T22:20:57.554Z,21.80
2018-07-28T22:23:26.645Z,21.80
2018-07-28T22:25:55.401Z,21.80
2018-07-28T22:28:24.229Z,21.80
2018-07-28T22:30:53.018Z,21.80
2018-07-28T22:33:21.924Z,21.80
2018-07-28T22:35:50.949Z,21.80
2018-07-28T22:38:19.945Z,21.80
2018-07-28T22:40:48.741Z,21.70
2018-07-28T22:43:17.542Z,21.70
2018-07-28T22:45:46.314Z,21.60
2018-07-28T22:48:15.121Z,21.60
2018-07-28T22:50:43.909Z,21.50
2018-07-28T22:53:12.697Z,21.40
2018-07-28T22:55:41.581Z,21.40
2018-07-28T22:58:10.405Z,21.40
2018-07-28T23:00:39.331Z,21.40
2018-07-28T23:03:08.126Z,21.30
2018-07-28T23:05:37.046Z,21.30
2018-07-28T23:08:05.945Z,21.40
2018-07-28T23:10:34.754Z,21.30
2018-07-28T23:13:03.833Z,21.30
2018-07-28T23:18:01.210Z,21.20
2018-07-28T23:20:30.015Z,21.20
2018-07-28T23:22:58.957Z,21.10
2018-07-28T23:25:27.941Z,21.10
2018-07-28T23:27:56.771Z,21.20
2018-07-28T23:30:25.620Z,21.20
2018-07-28T23:32:54.581Z,21.10
2018-07-28T23:35:23.437Z,21.00
2018-07-28T23:37:52.210Z,21.00
2018-07-28T23:40:20.985Z,21.00
2018-07-28T23:42:49.883Z,21.00
2018-07-28T23:45:18.713Z,20.90
2018-07-28T23:50:16.041Z,20.90
2018-07-28T23:52:44.913Z,20.80
2018-07-28T23:55:13.649Z,20.70
2018-07-28T23:57:42.435Z,20.70
